الصفحة الرئيسية
METAR-TAF:

METAR-TAF

مطار :

مطار إيسنبوغا الدولي

أنقرة Esenboğa, تركيا

دائرة عرض: 40-07N, خط طول: 032-59E, ارتفاع: 953 متر

مراقبة الطقس الحالي

تاريخ ووقت الإصدار 22 دقيقة قبل الساعة 14:50UTC
ريح 16 عقدة من الشمال
درجة الحرارة 4°درجة مئوية
الرطوبة 41%
ضغط 1014 hPa
الرؤية 10 كم أو أكثر
غيوم متفرقة على ارتفاع 4000 قدم

METAR: LTAC 241450Z 01016KT 9999 SCT040 04/M08 Q1014 NOSIG RMK RWY21L 35017KT RWY03L 01014KT RWY21R 01016KT

زمن: 18:12 (15:12 UTC)

توقعات

تاريخ ووقت الإصدار 4ساعات و 32 دقيقة قبل الساعة 10:40UTC
التوقعات صالحة من24 الساعة 12 UTC إلى 25 الساعة 12 UTC
ريح 9 عقدة من الشمال الشرقي
الرؤية 10 كم أو أكثر
غيوم متفرقة على ارتفاع 4000 قدم
مؤقت
من 24 الساعة 12 UTC إلى 24 الساعة 16 UTC
ريح 15 عقدة من الشمال/الشمال الشرقي تتزايد حتى 25 عقدة

TAF: LTAC 241040Z 2412/2512 04009KT 9999 SCT040 TEMPO 2412/2416 03015G25KT

أرصاد الطقس والتوقعات من أكثر من 4000 مطار (تقارير الطقس للمطار METAR والتنبؤ بالطقس بالمطارTAF).

المحطات المتاحة هي النقط الصفراء والحمراء على الخريطة.

حرك المؤشر فوق النقطة لمعرفة اسم المحطة.

ثم انقر لمعرفة أرصاد وتوقعات الطقس.

لتغيير الخارطة: اضغط على الأزرار الخضراء مع رمز الصليب الأسود للتكبير. على الزر الأخضر مع شرطة للتصغير، أو على الأسهم الخضراء للخرائط المجاورة.


METAR-TAF: